sensor_id;sensor_type;location;lat;lon;timestamp;temperature;humidity
70421;SHT31;57848;51.938;15.520;2023-08-24T00:00:29;20.28;64.38
70421;SHT31;57848;51.938;15.520;2023-08-24T00:02:57;20.21;64.25
70421;SHT31;57848;51.938;15.520;2023-08-24T00:05:23;20.18;64.47
70421;SHT31;57848;51.938;15.520;2023-08-24T00:07:48;20.12;64.25
70421;SHT31;57848;51.938;15.520;2023-08-24T00:10:14;20.12;64.44
70421;SHT31;57848;51.938;15.520;2023-08-24T00:12:40;20.18;64.58
70421;SHT31;57848;51.938;15.520;2023-08-24T00:15:08;20.08;65.26
70421;SHT31;57848;51.938;15.520;2023-08-24T00:17:34;20.02;65.44
70421;SHT31;57848;51.938;15.520;2023-08-24T00:19:59;19.99;64.82
70421;SHT31;57848;51.938;15.520;2023-08-24T00:22:25;19.95;65.38
70421;SHT31;57848;51.938;15.520;2023-08-24T00:24:50;20.01;64.98
70421;SHT31;57848;51.938;15.520;2023-08-24T00:27:15;19.95;65.38
70421;SHT31;57848;51.938;15.520;2023-08-24T00:29:41;19.94;65.49
70421;SHT31;57848;51.938;15.520;2023-08-24T00:32:06;19.86;66.02
70421;SHT31;57848;51.938;15.520;2023-08-24T00:34:33;19.82;66.58
70421;SHT31;57848;51.938;15.520;2023-08-24T00:36:58;19.77;66.96
70421;SHT31;57848;51.938;15.520;2023-08-24T00:39:23;19.75;67.02
70421;SHT31;57848;51.938;15.520;2023-08-24T00:41:49;19.71;66.61
70421;SHT31;57848;51.938;15.520;2023-08-24T00:44:14;19.65;67.03
70421;SHT31;57848;51.938;15.520;2023-08-24T00:46:39;19.57;67.59
70421;SHT31;57848;51.938;15.520;2023-08-24T00:49:06;19.56;67.03
70421;SHT31;57848;51.938;15.520;2023-08-24T00:51:32;19.58;67.39
70421;SHT31;57848;51.938;15.520;2023-08-24T00:53:57;19.53;67.84
70421;SHT31;57848;51.938;15.520;2023-08-24T00:56:23;19.51;67.60
70421;SHT31;57848;51.938;15.520;2023-08-24T00:58:50;19.46;68.35
70421;SHT31;57848;51.938;15.520;2023-08-24T01:01:17;19.44;67.76
70421;SHT31;57848;51.938;15.520;2023-08-24T01:03:43;19.46;68.45
70421;SHT31;57848;51.938;15.520;2023-08-24T01:06:08;19.41;68.38
70421;SHT31;57848;51.938;15.520;2023-08-24T01:08:34;19.34;68.31
70421;SHT31;57848;51.938;15.520;2023-08-24T01:11:18;19.36;67.81
70421;SHT31;57848;51.938;15.520;2023-08-24T01:16:45;19.30;67.69
70421;SHT31;57848;51.938;15.520;2023-08-24T01:19:31;19.24;68.42
70421;SHT31;57848;51.938;15.520;2023-08-24T01:22:01;19.28;68.29
70421;SHT31;57848;51.938;15.520;2023-08-24T01:24:59;19.30;68.89
70421;SHT31;57848;51.938;15.520;2023-08-24T01:27:26;19.26;68.77
70421;SHT31;57848;51.938;15.520;2023-08-24T01:29:53;19.19;69.45
70421;SHT31;57848;51.938;15.520;2023-08-24T01:32:24;19.17;69.55
70421;SHT31;57848;51.938;15.520;2023-08-24T01:34:49;19.10;69.90
70421;SHT31;57848;51.938;15.520;2023-08-24T01:37:14;19.05;69.17
70421;SHT31;57848;51.938;15.520;2023-08-24T01:42:19;19.03;68.99
70421;SHT31;57848;51.938;15.520;2023-08-24T01:44:50;19.05;68.96
70421;SHT31;57848;51.938;15.520;2023-08-24T01:47:18;19.03;69.98
70421;SHT31;57848;51.938;15.520;2023-08-24T01:49:44;19.00;69.27
70421;SHT31;57848;51.938;15.520;2023-08-24T01:52:10;19.02;69.42
70421;SHT31;57848;51.938;15.520;2023-08-24T01:54:36;18.95;69.66
70421;SHT31;57848;51.938;15.520;2023-08-24T01:57:04;18.96;69.85
70421;SHT31;57848;51.938;15.520;2023-08-24T01:59:29;18.94;70.17
70421;SHT31;57848;51.938;15.520;2023-08-24T02:01:55;18.84;70.08
70421;SHT31;57848;51.938;15.520;2023-08-24T02:04:20;18.84;70.37
70421;SHT31;57848;51.938;15.520;2023-08-24T02:06:45;18.76;70.95
70421;SHT31;57848;51.938;15.520;2023-08-24T02:09:11;18.81;70.36
70421;SHT31;57848;51.938;15.520;2023-08-24T02:11:37;18.73;70.67
70421;SHT31;57848;51.938;15.520;2023-08-24T02:14:02;18.66;71.18
70421;SHT31;57848;51.938;15.520;2023-08-24T02:16:27;18.65;71.50
70421;SHT31;57848;51.938;15.520;2023-08-24T02:18:53;18.61;71.33
70421;SHT31;57848;51.938;15.520;2023-08-24T02:21:18;18.66;71.58
70421;SHT31;57848;51.938;15.520;2023-08-24T02:23:43;18.61;71.21
70421;SHT31;57848;51.938;15.520;2023-08-24T02:26:09;18.58;71.40
70421;SHT31;57848;51.938;15.520;2023-08-24T02:28:36;18.49;71.69
70421;SHT31;57848;51.938;15.520;2023-08-24T02:31:03;18.47;71.91
70421;SHT31;57848;51.938;15.520;2023-08-24T02:33:29;18.38;72.64
70421;SHT31;57848;51.938;15.520;2023-08-24T02:35:54;18.40;72.14
70421;SHT31;57848;51.938;15.520;2023-08-24T02:38:20;18.31;72.63
70421;SHT31;57848;51.938;15.520;2023-08-24T02:40:45;18.26;72.41
70421;SHT31;57848;51.938;15.520;2023-08-24T02:43:11;18.31;71.97
70421;SHT31;57848;51.938;15.520;2023-08-24T02:45:36;18.30;72.54
70421;SHT31;57848;51.938;15.520;2023-08-24T02:48:02;18.31;73.50
70421;SHT31;57848;51.938;15.520;2023-08-24T02:50:27;18.35;72.71
70421;SHT31;57848;51.938;15.520;2023-08-24T02:52:52;18.28;72.91
70421;SHT31;57848;51.938;15.520;2023-08-24T02:55:18;18.34;72.93
70421;SHT31;57848;51.938;15.520;2023-08-24T02:57:43;18.20;72.88
70421;SHT31;57848;51.938;15.520;2023-08-24T03:00:08;18.17;73.31
70421;SHT31;57848;51.938;15.520;2023-08-24T03:02:35;18.18;73.00
70421;SHT31;57848;51.938;15.520;2023-08-24T03:05:01;18.11;73.32
70421;SHT31;57848;51.938;15.520;2023-08-24T03:07:27;18.04;73.25
70421;SHT31;57848;51.938;15.520;2023-08-24T03:09:53;18.06;73.54
70421;SHT31;57848;51.938;15.520;2023-08-24T03:12:18;17.98;74.22
70421;SHT31;57848;51.938;15.520;2023-08-24T03:14:44;17.98;74.16
70421;SHT31;57848;51.938;15.520;2023-08-24T03:17:09;18.01;74.26
70421;SHT31;57848;51.938;15.520;2023-08-24T03:19:34;18.03;74.25
70421;SHT31;57848;51.938;15.520;2023-08-24T03:22:00;18.00;74.69
70421;SHT31;57848;51.938;15.520;2023-08-24T03:24:25;18.01;74.38
70421;SHT31;57848;51.938;15.520;2023-08-24T03:26:52;18.00;74.38
70421;SHT31;57848;51.938;15.520;2023-08-24T03:29:19;17.91;74.49
70421;SHT31;57848;51.938;15.520;2023-08-24T03:31:44;17.82;74.88
70421;SHT31;57848;51.938;15.520;2023-08-24T03:34:10;17.76;75.24
70421;SHT31;57848;51.938;15.520;2023-08-24T03:36:35;17.86;75.21
70421;SHT31;57848;51.938;15.520;2023-08-24T03:39:01;17.66;75.69
70421;SHT31;57848;51.938;15.520;2023-08-24T03:41:28;17.65;75.83
70421;SHT31;57848;51.938;15.520;2023-08-24T03:43:54;17.73;75.57
70421;SHT31;57848;51.938;15.520;2023-08-24T03:46:19;17.69;75.93
70421;SHT31;57848;51.938;15.520;2023-08-24T03:48:46;17.73;75.62
70421;SHT31;57848;51.938;15.520;2023-08-24T03:51:11;17.69;75.99
70421;SHT31;57848;51.938;15.520;2023-08-24T03:53:37;17.67;76.19
70421;SHT31;57848;51.938;15.520;2023-08-24T03:56:05;17.69;76.30
70421;SHT31;57848;51.938;15.520;2023-08-24T03:58:31;17.76;75.85
70421;SHT31;57848;51.938;15.520;2023-08-24T04:00:57;17.79;75.75
70421;SHT31;57848;51.938;15.520;2023-08-24T04:03:23;17.72;76.07
70421;SHT31;57848;51.938;15.520;2023-08-24T04:05:50;17.73;76.36
70421;SHT31;57848;51.938;15.520;2023-08-24T04:08:15;17.82;76.34
70421;SHT31;57848;51.938;15.520;2023-08-24T04:10:40;17.76;76.55
70421;SHT31;57848;51.938;15.520;2023-08-24T04:13:06;17.77;76.75
70421;SHT31;57848;51.938;15.520;2023-08-24T04:15:31;17.79;77.11
70421;SHT31;57848;51.938;15.520;2023-08-24T04:17:57;17.83;77.59
70421;SHT31;57848;51.938;15.520;2023-08-24T04:20:22;17.80;77.90
70421;SHT31;57848;51.938;15.520;2023-08-24T04:22:47;17.91;77.85
70421;SHT31;57848;51.938;15.520;2023-08-24T04:25:13;17.80;78.72
70421;SHT31;57848;51.938;15.520;2023-08-24T04:27:38;17.86;78.87
70421;SHT31;57848;51.938;15.520;2023-08-24T04:30:04;17.86;79.08
70421;SHT31;57848;51.938;15.520;2023-08-24T04:32:31;17.91;79.28
70421;SHT31;57848;51.938;15.520;2023-08-24T04:34:57;18.01;79.12
70421;SHT31;57848;51.938;15.520;2023-08-24T04:37:22;17.97;79.28
70421;SHT31;57848;51.938;15.520;2023-08-24T04:39:48;17.90;80.22
70421;SHT31;57848;51.938;15.520;2023-08-24T04:42:13;18.00;79.88
70421;SHT31;57848;51.938;15.520;2023-08-24T04:44:38;18.08;80.03
70421;SHT31;57848;51.938;15.520;2023-08-24T04:47:04;18.11;80.60
70421;SHT31;57848;51.938;15.520;2023-08-24T04:49:30;18.14;80.47
70421;SHT31;57848;51.938;15.520;2023-08-24T04:51:55;18.20;80.18
70421;SHT31;57848;51.938;15.520;2023-08-24T04:54:20;18.30;79.77
70421;SHT31;57848;51.938;15.520;2023-08-24T04:56:46;18.27;79.72
70421;SHT31;57848;51.938;15.520;2023-08-24T04:59:12;18.34;79.69
70421;SHT31;57848;51.938;15.520;2023-08-24T05:01:37;18.35;79.62
70421;SHT31;57848;51.938;15.520;2023-08-24T05:04:03;18.37;79.98
70421;SHT31;57848;51.938;15.520;2023-08-24T05:06:28;18.41;79.96
70421;SHT31;57848;51.938;15.520;2023-08-24T05:08:54;18.47;79.86
70421;SHT31;57848;51.938;15.520;2023-08-24T05:11:23;18.43;80.05
70421;SHT31;57848;51.938;15.520;2023-08-24T05:13:49;18.44;79.86
70421;SHT31;57848;51.938;15.520;2023-08-24T05:16:15;18.49;80.03
70421;SHT31;57848;51.938;15.520;2023-08-24T05:18:40;18.49;80.02
70421;SHT31;57848;51.938;15.520;2023-08-24T05:21:06;18.52;79.67
70421;SHT31;57848;51.938;15.520;2023-08-24T05:23:34;18.59;79.40
70421;SHT31;57848;51.938;15.520;2023-08-24T05:26:01;18.59;79.44
70421;SHT31;57848;51.938;15.520;2023-08-24T05:28:28;18.64;79.60
70421;SHT31;57848;51.938;15.520;2023-08-24T05:30:54;18.66;79.50
70421;SHT31;57848;51.938;15.520;2023-08-24T05:33:20;18.69;79.26
70421;SHT31;57848;51.938;15.520;2023-08-24T05:35:46;18.79;79.09
70421;SHT31;57848;51.938;15.520;2023-08-24T05:38:12;18.91;78.40
70421;SHT31;57848;51.938;15.520;2023-08-24T05:40:38;18.99;78.35
70421;SHT31;57848;51.938;15.520;2023-08-24T05:43:04;19.03;78.11
70421;SHT31;57848;51.938;15.520;2023-08-24T05:45:30;19.19;77.24
70421;SHT31;57848;51.938;15.520;2023-08-24T05:47:55;19.13;77.20
70421;SHT31;57848;51.938;15.520;2023-08-24T05:50:20;19.22;77.32
70421;SHT31;57848;51.938;15.520;2023-08-24T05:52:46;19.26;77.14
70421;SHT31;57848;51.938;15.520;2023-08-24T05:55:11;19.34;76.81
70421;SHT31;57848;51.938;15.520;2023-08-24T05:57:36;19.41;76.33
70421;SHT31;57848;51.938;15.520;2023-08-24T06:00:03;19.51;76.12
70421;SHT31;57848;51.938;15.520;2023-08-24T06:02:38;19.53;75.91
70421;SHT31;57848;51.938;15.520;2023-08-24T06:05:04;19.57;75.76
70421;SHT31;57848;51.938;15.520;2023-08-24T06:07:30;19.70;75.41
70421;SHT31;57848;51.938;15.520;2023-08-24T06:09:58;19.68;75.53
70421;SHT31;57848;51.938;15.520;2023-08-24T06:12:24;19.71;75.47
70421;SHT31;57848;51.938;15.520;2023-08-24T06:14:49;19.74;75.58
70421;SHT31;57848;51.938;15.520;2023-08-24T06:17:15;19.78;75.44
70421;SHT31;57848;51.938;15.520;2023-08-24T06:19:40;19.91;75.04
70421;SHT31;57848;51.938;15.520;2023-08-24T06:22:06;19.94;75.00
70421;SHT31;57848;51.938;15.520;2023-08-24T06:24:32;19.98;75.08
70421;SHT31;57848;51.938;15.520;2023-08-24T06:26:57;20.02;75.21
70421;SHT31;57848;51.938;15.520;2023-08-24T06:29:22;20.06;74.91
70421;SHT31;57848;51.938;15.520;2023-08-24T06:31:47;20.09;74.84
70421;SHT31;57848;51.938;15.520;2023-08-24T06:34:13;20.21;74.59
70421;SHT31;57848;51.938;15.520;2023-08-24T06:36:38;20.22;75.17
70421;SHT31;57848;51.938;15.520;2023-08-24T06:39:03;20.33;74.74
70421;SHT31;57848;51.938;15.520;2023-08-24T06:41:35;20.37;74.92
70421;SHT31;57848;51.938;15.520;2023-08-24T06:44:06;20.53;74.10
70421;SHT31;57848;51.938;15.520;2023-08-24T06:46:31;20.53;74.33
70421;SHT31;57848;51.938;15.520;2023-08-24T06:48:56;20.62;73.71
70421;SHT31;57848;51.938;15.520;2023-08-24T06:51:22;20.64;73.55
70421;SHT31;57848;51.938;15.520;2023-08-24T06:53:47;20.76;73.00
70421;SHT31;57848;51.938;15.520;2023-08-24T06:56:13;20.83;72.70
70421;SHT31;57848;51.938;15.520;2023-08-24T06:58:40;20.81;72.74
70421;SHT31;57848;51.938;15.520;2023-08-24T07:01:05;20.86;72.73
70421;SHT31;57848;51.938;15.520;2023-08-24T07:03:31;20.95;72.67
70421;SHT31;57848;51.938;15.520;2023-08-24T07:05:58;21.05;72.15
70421;SHT31;57848;51.938;15.520;2023-08-24T07:08:24;21.07;71.72
70421;SHT31;57848;51.938;15.520;2023-08-24T07:10:49;21.20;71.05
70421;SHT31;57848;51.938;15.520;2023-08-24T07:13:14;21.18;70.63
70421;SHT31;57848;51.938;15.520;2023-08-24T07:15:40;21.21;70.70
70421;SHT31;57848;51.938;15.520;2023-08-24T07:18:05;21.28;71.03
70421;SHT31;57848;51.938;15.520;2023-08-24T07:20:33;21.39;69.90
70421;SHT31;57848;51.938;15.520;2023-08-24T07:22:58;21.55;69.60
70421;SHT31;57848;51.938;15.520;2023-08-24T07:25:24;21.61;69.14
70421;SHT31;57848;51.938;15.520;2023-08-24T07:27:49;21.63;69.46
70421;SHT31;57848;51.938;15.520;2023-08-24T07:30:14;21.72;67.50
70421;SHT31;57848;51.938;15.520;2023-08-24T07:32:40;21.83;68.15
70421;SHT31;57848;51.938;15.520;2023-08-24T07:35:06;21.86;68.64
70421;SHT31;57848;51.938;15.520;2023-08-24T07:37:32;21.90;67.93
70421;SHT31;57848;51.938;15.520;2023-08-24T07:39:57;22.02;68.24
70421;SHT31;57848;51.938;15.520;2023-08-24T07:42:23;22.13;67.12
70421;SHT31;57848;51.938;15.520;2023-08-24T07:44:49;22.14;67.75
70421;SHT31;57848;51.938;15.520;2023-08-24T07:47:15;22.25;67.49
70421;SHT31;57848;51.938;15.520;2023-08-24T07:49:40;22.39;65.96
70421;SHT31;57848;51.938;15.520;2023-08-24T07:52:12;22.44;66.11
70421;SHT31;57848;51.938;15.520;2023-08-24T07:54:38;22.58;65.50
70421;SHT31;57848;51.938;15.520;2023-08-24T07:57:05;22.69;65.65
70421;SHT31;57848;51.938;15.520;2023-08-24T07:59:30;22.69;65.67
70421;SHT31;57848;51.938;15.520;2023-08-24T08:01:55;22.78;64.38
70421;SHT31;57848;51.938;15.520;2023-08-24T08:04:21;22.90;65.81
70421;SHT31;57848;51.938;15.520;2023-08-24T08:06:46;22.92;64.97
70421;SHT31;57848;51.938;15.520;2023-08-24T08:09:11;22.92;62.82
70421;SHT31;57848;51.938;15.520;2023-08-24T08:11:37;22.94;63.41
70421;SHT31;57848;51.938;15.520;2023-08-24T08:14:02;22.92;63.04
70421;SHT31;57848;51.938;15.520;2023-08-24T08:16:28;22.94;62.37
70421;SHT31;57848;51.938;15.520;2023-08-24T08:18:53;22.96;62.52
70421;SHT31;57848;51.938;15.520;2023-08-24T08:21:18;23.09;58.59
70421;SHT31;57848;51.938;15.520;2023-08-24T08:23:44;23.16;59.27
70421;SHT31;57848;51.938;15.520;2023-08-24T08:26:11;23.24;58.54
70421;SHT31;57848;51.938;15.520;2023-08-24T08:28:36;23.19;58.38
70421;SHT31;57848;51.938;15.520;2023-08-24T08:31:01;23.36;55.91
70421;SHT31;57848;51.938;15.520;2023-08-24T08:33:28;23.36;56.18
70421;SHT31;57848;51.938;15.520;2023-08-24T08:35:53;23.40;56.79
70421;SHT31;57848;51.938;15.520;2023-08-24T08:38:19;23.49;55.41
70421;SHT31;57848;51.938;15.520;2023-08-24T08:40:49;23.56;54.26
70421;SHT31;57848;51.938;15.520;2023-08-24T08:43:14;23.54;53.49
70421;SHT31;57848;51.938;15.520;2023-08-24T08:45:39;23.66;51.98
70421;SHT31;57848;51.938;15.520;2023-08-24T08:48:05;23.74;53.03
70421;SHT31;57848;51.938;15.520;2023-08-24T08:50:32;23.80;52.13
70421;SHT31;57848;51.938;15.520;2023-08-24T08:52:58;23.78;52.59
70421;SHT31;57848;51.938;15.520;2023-08-24T08:55:25;23.80;52.12
70421;SHT31;57848;51.938;15.520;2023-08-24T08:57:51;23.84;54.42
70421;SHT31;57848;51.938;15.520;2023-08-24T09:00:19;23.87;54.27
70421;SHT31;57848;51.938;15.520;2023-08-24T09:02:45;23.93;52.31
70421;SHT31;57848;51.938;15.520;2023-08-24T09:05:13;23.97;53.23
70421;SHT31;57848;51.938;15.520;2023-08-24T09:07:41;24.07;53.84
70421;SHT31;57848;51.938;15.520;2023-08-24T09:10:07;24.15;53.84
70421;SHT31;57848;51.938;15.520;2023-08-24T09:12:34;24.24;51.72
70421;SHT31;57848;51.938;15.520;2023-08-24T09:14:59;24.17;51.74
70421;SHT31;57848;51.938;15.520;2023-08-24T09:17:25;24.19;50.52
70421;SHT31;57848;51.938;15.520;2023-08-24T09:19:51;24.24;52.09
70421;SHT31;57848;51.938;15.520;2023-08-24T09:22:17;24.24;51.03
70421;SHT31;57848;51.938;15.520;2023-08-24T09:24:42;24.28;52.11
70421;SHT31;57848;51.938;15.520;2023-08-24T09:27:16;24.41;52.20
70421;SHT31;57848;51.938;15.520;2023-08-24T09:29:51;24.55;53.19
70421;SHT31;57848;51.938;15.520;2023-08-24T09:32:30;24.69;51.48
70421;SHT31;57848;51.938;15.520;2023-08-24T09:35:02;24.80;52.56
70421;SHT31;57848;51.938;15.520;2023-08-24T09:37:32;24.86;52.17
70421;SHT31;57848;51.938;15.520;2023-08-24T09:40:02;25.07;50.44
70421;SHT31;57848;51.938;15.520;2023-08-24T09:42:37;25.07;50.01
70421;SHT31;57848;51.938;15.520;2023-08-24T09:45:04;25.17;50.96
70421;SHT31;57848;51.938;15.520;2023-08-24T09:47:29;25.38;51.05
70421;SHT31;57848;51.938;15.520;2023-08-24T09:49:55;25.58;50.48
70421;SHT31;57848;51.938;15.520;2023-08-24T09:52:21;25.88;51.25
70421;SHT31;57848;51.938;15.520;2023-08-24T09:54:47;26.17;50.94
70421;SHT31;57848;51.938;15.520;2023-08-24T09:57:14;26.12;48.82
70421;SHT31;57848;51.938;15.520;2023-08-24T09:59:41;26.39;49.28
70421;SHT31;57848;51.938;15.520;2023-08-24T10:02:15;26.60;48.15
70421;SHT31;57848;51.938;15.520;2023-08-24T10:04:43;26.63;48.44
70421;SHT31;57848;51.938;15.520;2023-08-24T10:07:11;26.81;48.32
70421;SHT31;57848;51.938;15.520;2023-08-24T10:09:47;26.83;46.50
70421;SHT31;57848;51.938;15.520;2023-08-24T10:12:18;26.78;47.74
70421;SHT31;57848;51.938;15.520;2023-08-24T10:15:04;26.73;47.04
70421;SHT31;57848;51.938;15.520;2023-08-24T10:17:32;26.56;47.77
70421;SHT31;57848;51.938;15.520;2023-08-24T10:20:00;26.51;47.96
70421;SHT31;57848;51.938;15.520;2023-08-24T10:22:34;26.40;46.88
70421;SHT31;57848;51.938;15.520;2023-08-24T10:25:01;26.54;47.22
70421;SHT31;57848;51.938;15.520;2023-08-24T10:27:30;27.05;47.09
70421;SHT31;57848;51.938;15.520;2023-08-24T10:29:56;27.49;46.93
70421;SHT31;57848;51.938;15.520;2023-08-24T10:32:22;27.92;45.27
70421;SHT31;57848;51.938;15.520;2023-08-24T10:34:49;28.69;44.13
70421;SHT31;57848;51.938;15.520;2023-08-24T10:37:15;29.23;42.16
70421;SHT31;57848;51.938;15.520;2023-08-24T10:39:45;30.25;42.17
70421;SHT31;57848;51.938;15.520;2023-08-24T10:42:11;30.93;41.13
70421;SHT31;57848;51.938;15.520;2023-08-24T10:44:38;31.85;38.83
70421;SHT31;57848;51.938;15.520;2023-08-24T10:49:57;33.72;36.75
70421;SHT31;57848;51.938;15.520;2023-08-24T10:52:32;32.97;36.89
70421;SHT31;57848;51.938;15.520;2023-08-24T10:55:00;32.43;37.55
70421;SHT31;57848;51.938;15.520;2023-08-24T10:57:36;32.29;37.85
70421;SHT31;57848;51.938;15.520;2023-08-24T11:02:48;32.63;36.97
70421;SHT31;57848;51.938;15.520;2023-08-24T11:05:27;31.75;38.29
70421;SHT31;57848;51.938;15.520;2023-08-24T11:07:59;31.93;37.12
70421;SHT31;57848;51.938;15.520;2023-08-24T11:10:47;32.70;37.05
70421;SHT31;57848;51.938;15.520;2023-08-24T11:13:16;34.25;36.06
70421;SHT31;57848;51.938;15.520;2023-08-24T11:15:49;34.92;35.19
70421;SHT31;57848;51.938;15.520;2023-08-24T11:18:27;35.78;34.02
70421;SHT31;57848;51.938;15.520;2023-08-24T11:20:54;36.50;32.92
70421;SHT31;57848;51.938;15.520;2023-08-24T11:23:21;35.73;33.35
70421;SHT31;57848;51.938;15.520;2023-08-24T11:25:49;35.22;34.46
70421;SHT31;57848;51.938;15.520;2023-08-24T11:28:19;34.25;36.43
70421;SHT31;57848;51.938;15.520;2023-08-24T11:30:45;34.08;36.19
70421;SHT31;57848;51.938;15.520;2023-08-24T11:33:11;34.79;35.91
70421;SHT31;57848;51.938;15.520;2023-08-24T11:35:42;34.58;35.08
70421;SHT31;57848;51.938;15.520;2023-08-24T11:38:07;34.18;36.17
70421;SHT31;57848;51.938;15.520;2023-08-24T11:40:33;33.60;36.68
70421;SHT31;57848;51.938;15.520;2023-08-24T11:42:58;32.57;38.34
70421;SHT31;57848;51.938;15.520;2023-08-24T11:45:30;32.27;38.65
70421;SHT31;57848;51.938;15.520;2023-08-24T11:47:55;31.14;40.34
70421;SHT31;57848;51.938;15.520;2023-08-24T11:50:23;31.35;41.37
70421;SHT31;57848;51.938;15.520;2023-08-24T11:52:48;31.99;39.69
70421;SHT31;57848;51.938;15.520;2023-08-24T11:55:13;32.54;38.81
70421;SHT31;57848;51.938;15.520;2023-08-24T11:57:39;32.67;38.45
70421;SHT31;57848;51.938;15.520;2023-08-24T12:00:05;32.27;38.78
70421;SHT31;57848;51.938;15.520;2023-08-24T12:02:31;32.58;39.68
70421;SHT31;57848;51.938;15.520;2023-08-24T12:04:58;32.44;38.84
70421;SHT31;57848;51.938;15.520;2023-08-24T12:07:24;33.63;37.88
70421;SHT31;57848;51.938;15.520;2023-08-24T12:09:49;34.58;35.54
70421;SHT31;57848;51.938;15.520;2023-08-24T12:12:18;35.34;35.45
70421;SHT31;57848;51.938;15.520;2023-08-24T12:14:47;36.46;33.53
70421;SHT31;57848;51.938;15.520;2023-08-24T12:17:13;36.29;33.07
70421;SHT31;57848;51.938;15.520;2023-08-24T12:19:42;36.53;32.34
70421;SHT31;57848;51.938;15.520;2023-08-24T12:22:16;37.07;32.36
70421;SHT31;57848;51.938;15.520;2023-08-24T12:24:46;37.10;32.51
70421;SHT31;57848;51.938;15.520;2023-08-24T12:27:23;36.82;32.85
70421;SHT31;57848;51.938;15.520;2023-08-24T12:29:48;37.34;32.13
70421;SHT31;57848;51.938;15.520;2023-08-24T12:32:14;36.68;33.20
70421;SHT31;57848;51.938;15.520;2023-08-24T12:34:46;36.87;31.90
70421;SHT31;57848;51.938;15.520;2023-08-24T12:37:12;37.06;32.55
70421;SHT31;57848;51.938;15.520;2023-08-24T12:39:39;37.13;32.97
70421;SHT31;57848;51.938;15.520;2023-08-24T12:42:05;35.82;33.16
70421;SHT31;57848;51.938;15.520;2023-08-24T12:44:31;34.33;36.01
70421;SHT31;57848;51.938;15.520;2023-08-24T12:46:57;34.71;36.69
70421;SHT31;57848;51.938;15.520;2023-08-24T12:49:22;34.81;34.90
70421;SHT31;57848;51.938;15.520;2023-08-24T12:51:47;35.73;34.28
70421;SHT31;57848;51.938;15.520;2023-08-24T12:54:13;35.51;34.61
70421;SHT31;57848;51.938;15.520;2023-08-24T12:56:39;34.81;36.19
70421;SHT31;57848;51.938;15.520;2023-08-24T12:59:08;35.04;35.53
70421;SHT31;57848;51.938;15.520;2023-08-24T13:01:34;35.36;34.37
70421;SHT31;57848;51.938;15.520;2023-08-24T13:03:59;34.23;35.99
70421;SHT31;57848;51.938;15.520;2023-08-24T13:06:24;34.24;35.21
70421;SHT31;57848;51.938;15.520;2023-08-24T13:08:53;34.73;34.18
70421;SHT31;57848;51.938;15.520;2023-08-24T13:11:18;34.91;34.12
70421;SHT31;57848;51.938;15.520;2023-08-24T13:13:44;34.69;35.45
70421;SHT31;57848;51.938;15.520;2023-08-24T13:16:10;34.61;34.99
70421;SHT31;57848;51.938;15.520;2023-08-24T13:18:36;34.20;36.05
70421;SHT31;57848;51.938;15.520;2023-08-24T13:21:01;33.47;37.12
70421;SHT31;57848;51.938;15.520;2023-08-24T13:23:27;32.64;37.37
70421;SHT31;57848;51.938;15.520;2023-08-24T13:25:52;31.80;38.71
70421;SHT31;57848;51.938;15.520;2023-08-24T13:28:17;31.52;39.86
70421;SHT31;57848;51.938;15.520;2023-08-24T13:30:43;31.59;39.11
70421;SHT31;57848;51.938;15.520;2023-08-24T13:33:08;31.24;39.26
70421;SHT31;57848;51.938;15.520;2023-08-24T13:35:34;30.87;40.20
70421;SHT31;57848;51.938;15.520;2023-08-24T13:38:00;30.59;41.13
70421;SHT31;57848;51.938;15.520;2023-08-24T13:40:25;30.39;41.54
70421;SHT31;57848;51.938;15.520;2023-08-24T13:42:50;30.26;41.74
70421;SHT31;57848;51.938;15.520;2023-08-24T13:45:16;30.44;40.86
70421;SHT31;57848;51.938;15.520;2023-08-24T13:47:41;29.94;41.59
70421;SHT31;57848;51.938;15.520;2023-08-24T13:50:06;29.88;41.59
70421;SHT31;57848;51.938;15.520;2023-08-24T13:52:33;29.70;42.21
70421;SHT31;57848;51.938;15.520;2023-08-24T13:54:58;29.71;42.67
70421;SHT31;57848;51.938;15.520;2023-08-24T13:57:24;29.74;42.45
70421;SHT31;57848;51.938;15.520;2023-08-24T13:59:49;29.63;42.44
70421;SHT31;57848;51.938;15.520;2023-08-24T14:02:14;29.64;43.23
70421;SHT31;57848;51.938;15.520;2023-08-24T14:04:40;29.55;42.87
70421;SHT31;57848;51.938;15.520;2023-08-24T14:07:05;29.51;42.47
70421;SHT31;57848;51.938;15.520;2023-08-24T14:09:30;29.46;43.30
70421;SHT31;57848;51.938;15.520;2023-08-24T14:11:56;29.31;42.01
70421;SHT31;57848;51.938;15.520;2023-08-24T14:14:21;29.24;43.19
70421;SHT31;57848;51.938;15.520;2023-08-24T14:16:53;29.02;43.36
70421;SHT31;57848;51.938;15.520;2023-08-24T14:19:18;29.10;44.00
70421;SHT31;57848;51.938;15.520;2023-08-24T14:21:44;29.03;43.27
70421;SHT31;57848;51.938;15.520;2023-08-24T14:24:09;29.10;42.54
70421;SHT31;57848;51.938;15.520;2023-08-24T14:26:35;29.24;42.79
70421;SHT31;57848;51.938;15.520;2023-08-24T14:29:01;29.40;43.33
70421;SHT31;57848;51.938;15.520;2023-08-24T14:31:27;29.38;43.15
70421;SHT31;57848;51.938;15.520;2023-08-24T14:33:53;29.40;43.47
70421;SHT31;57848;51.938;15.520;2023-08-24T14:36:19;29.27;44.37
70421;SHT31;57848;51.938;15.520;2023-08-24T14:38:46;29.09;43.15
70421;SHT31;57848;51.938;15.520;2023-08-24T14:41:13;28.78;43.52
70421;SHT31;57848;51.938;15.520;2023-08-24T14:43:39;28.80;43.94
70421;SHT31;57848;51.938;15.520;2023-08-24T14:46:05;28.79;43.98
70421;SHT31;57848;51.938;15.520;2023-08-24T14:48:30;28.79;43.79
70421;SHT31;57848;51.938;15.520;2023-08-24T14:50:56;28.88;44.49
70421;SHT31;57848;51.938;15.520;2023-08-24T14:53:22;28.96;44.24
70421;SHT31;57848;51.938;15.520;2023-08-24T14:55:48;28.98;45.35
70421;SHT31;57848;51.938;15.520;2023-08-24T14:58:13;28.99;45.11
70421;SHT31;57848;51.938;15.520;2023-08-24T15:00:39;28.96;43.91
70421;SHT31;57848;51.938;15.520;2023-08-24T15:03:04;28.92;44.50
70421;SHT31;57848;51.938;15.520;2023-08-24T15:05:30;28.89;44.43
70421;SHT31;57848;51.938;15.520;2023-08-24T15:07:55;28.92;44.55
70421;SHT31;57848;51.938;15.520;2023-08-24T15:10:20;28.98;44.79
70421;SHT31;57848;51.938;15.520;2023-08-24T15:12:46;29.04;44.24
70421;SHT31;57848;51.938;15.520;2023-08-24T15:15:12;29.07;44.01
70421;SHT31;57848;51.938;15.520;2023-08-24T15:17:42;29.00;44.03
70421;SHT31;57848;51.938;15.520;2023-08-24T15:20:08;29.07;44.19
70421;SHT31;57848;51.938;15.520;2023-08-24T15:22:33;28.98;44.63